Time;durP1;ratioP1;P1;durP2;ratioP2;P2;SDS_P1;SDS_P2;PMS_P1;PMS_P2;Temp;Humidity;BMP_temperature;BMP_pressure;BME280_temperature;BME280_humidity;BME280_pressure;Samples;Min_cycle;Max_cycle;Signal;HPM_P1;HPM_P2
2023/08/01 00:02:04;;;;;;;2.00;0.60;;;;;;;;;;5055784;28;20746;-89
2023/08/01 00:04:32;;;;;;;1.50;0.50;;;;;;;;;;5055142;28;20230;-90
2023/08/01 00:06:59;;;;;;;2.05;0.60;;;;;;;;;;5056016;28;20291;-89
2023/08/01 00:09:27;;;;;;;0.45;0.38;;;;;;;;;;5056795;28;20295;-90
2023/08/01 00:11:54;;;;;;;2.30;0.50;;;;;;;;;;5055577;28;20239;-89
2023/08/01 00:14:24;;;;;;;1.45;0.82;;;;;;;;;;5055423;28;20195;-90
2023/08/01 00:16:51;;;;;;;2.10;0.63;;;;;;;;;;5054710;28;20675;-89
2023/08/01 00:19:18;;;;;;;1.45;0.65;;;;;;;;;;5058508;28;20219;-84
2023/08/01 00:21:47;;;;;;;2.22;0.80;;;;;;;;;;5054423;28;20315;-86
2023/08/01 00:24:15;;;;;;;3.25;0.90;;;;;;;;;;5055315;28;20196;-86
2023/08/01 00:26:42;;;;;;;3.20;0.88;;;;;;;;;;5056130;28;20738;-90
2023/08/01 00:29:09;;;;;;;2.05;1.27;;;;;;;;;;5053887;28;20195;-88
2023/08/01 00:31:36;;;;;;;3.30;1.27;;;;;;;;;;5054704;28;20283;-88
2023/08/01 00:34:03;;;;;;;2.80;0.90;;;;;;;;;;5054884;28;20230;-88
2023/08/01 00:36:31;;;;;;;2.63;0.98;;;;;;;;;;5054710;28;20230;-87
2023/08/01 00:39:00;;;;;;;2.92;1.17;;;;;;;;;;5054462;28;20220;-88
2023/08/01 00:41:27;;;;;;;5.15;1.40;;;;;;;;;;5054832;28;20318;-87
2023/08/01 00:43:54;;;;;;;3.00;1.20;;;;;;;;;;5055306;28;20309;-88
2023/08/01 00:46:22;;;;;;;2.38;1.08;;;;;;;;;;5054207;28;20280;-88
2023/08/01 00:48:49;;;;;;;4.05;1.20;;;;;;;;;;5054347;28;20835;-88
2023/08/01 00:51:17;;;;;;;3.08;1.08;;;;;;;;;;5054791;28;20735;-89
2023/08/01 00:53:46;;;;;;;3.92;1.52;;;;;;;;;;5054679;28;20695;-88
2023/08/01 00:56:14;;;;;;;2.53;1.40;;;;;;;;;;5054443;28;20188;-87
2023/08/01 00:58:41;;;;;;;4.30;1.45;;;;;;;;;;5055250;28;20226;-87
2023/08/01 01:01:09;;;;;;;2.70;1.40;;;;;;;;;;5053497;28;20266;-88
2023/08/01 01:03:36;;;;;;;3.03;1.30;;;;;;;;;;5054541;28;20212;-87
2023/08/01 01:06:08;;;;;;;4.00;1.60;;;;;;;;;;5053990;28;20290;-88
2023/08/01 01:08:35;;;;;;;2.13;1.30;;;;;;;;;;5054831;28;20219;-88
2023/08/01 01:11:04;;;;;;;2.47;1.20;;;;;;;;;;5054614;28;20676;-88
2023/08/01 01:13:33;;;;;;;2.10;1.40;;;;;;;;;;5054798;28;20242;-88
2023/08/01 01:16:00;;;;;;;2.78;1.50;;;;;;;;;;5054549;28;20279;-89
2023/08/01 01:18:27;;;;;;;3.40;1.40;;;;;;;;;;5054398;28;20704;-88
2023/08/01 01:20:57;;;;;;;2.65;1.50;;;;;;;;;;5055073;28;20243;-87
2023/08/01 01:23:24;;;;;;;3.72;1.50;;;;;;;;;;5055174;28;20652;-88
2023/08/01 01:25:53;;;;;;;2.25;1.40;;;;;;;;;;5054735;28;20222;-88
2023/08/01 01:28:21;;;;;;;5.90;1.88;;;;;;;;;;5054540;28;20264;-88
2023/08/01 01:30:49;;;;;;;4.85;1.35;;;;;;;;;;5052132;28;20195;-87
2023/08/01 01:33:17;;;;;;;4.22;1.63;;;;;;;;;;5054166;28;20246;-89
2023/08/01 01:35:44;;;;;;;2.95;1.55;;;;;;;;;;5054724;28;20619;-86
2023/08/01 01:38:13;;;;;;;2.55;1.83;;;;;;;;;;5054414;28;20204;-88
2023/08/01 01:40:40;;;;;;;3.72;2.00;;;;;;;;;;5053622;28;20286;-87
2023/08/01 01:43:07;;;;;;;3.53;1.50;;;;;;;;;;5053989;28;20283;-88
2023/08/01 01:45:35;;;;;;;2.55;1.58;;;;;;;;;;5054086;28;20628;-88
2023/08/01 01:48:03;;;;;;;7.53;2.13;;;;;;;;;;5052857;28;20263;-88
2023/08/01 01:50:30;;;;;;;4.85;1.70;;;;;;;;;;5055466;28;20206;-88
2023/08/01 01:52:57;;;;;;;5.55;2.08;;;;;;;;;;5054238;28;20286;-88
2023/08/01 01:55:29;;;;;;;4.95;2.00;;;;;;;;;;5054618;28;20254;-88
2023/08/01 01:57:56;;;;;;;4.63;2.10;;;;;;;;;;5055091;28;20295;-87
2023/08/01 02:00:24;;;;;;;6.03;2.00;;;;;;;;;;5053785;28;20224;-87
2023/08/01 02:02:51;;;;;;;4.10;1.73;;;;;;;;;;5055288;28;20302;-87
2023/08/01 02:05:18;;;;;;;3.40;1.65;;;;;;;;;;5054310;28;20227;-87
2023/08/01 02:07:45;;;;;;;3.97;1.88;;;;;;;;;;5053764;28;20294;-87
2023/08/01 02:10:13;;;;;;;4.53;1.73;;;;;;;;;;5053842;28;20219;-86
2023/08/01 02:12:41;;;;;;;6.57;2.17;;;;;;;;;;5054415;28;20609;-87
2023/08/01 02:15:09;;;;;;;4.80;2.00;;;;;;;;;;5054658;28;20283;-86
2023/08/01 02:17:38;;;;;;;4.63;1.80;;;;;;;;;;5053143;28;20282;-87
2023/08/01 02:20:06;;;;;;;5.47;1.70;;;;;;;;;;5053747;28;20196;-86
2023/08/01 02:22:34;;;;;;;5.22;1.85;;;;;;;;;;5053686;28;20254;-87
2023/08/01 02:25:01;;;;;;;3.97;1.80;;;;;;;;;;5054510;28;20228;-86
2023/08/01 02:27:28;;;;;;;4.18;2.08;;;;;;;;;;5052650;28;20231;-87
2023/08/01 02:29:57;;;;;;;4.63;1.85;;;;;;;;;;5053872;28;20278;-86
2023/08/01 02:32:24;;;;;;;3.00;1.80;;;;;;;;;;5052499;28;20239;-86
2023/08/01 02:34:51;;;;;;;4.25;1.90;;;;;;;;;;5052700;28;20295;-86
2023/08/01 02:37:19;;;;;;;6.43;2.00;;;;;;;;;;5053788;28;20705;-86
2023/08/01 02:39:46;;;;;;;6.32;2.10;;;;;;;;;;5052793;28;20727;-87
2023/08/01 02:42:14;;;;;;;7.53;2.20;;;;;;;;;;5052519;28;20757;-85
2023/08/01 02:44:42;;;;;;;4.82;2.20;;;;;;;;;;5053270;28;20200;-85
2023/08/01 02:47:10;;;;;;;3.50;2.00;;;;;;;;;;5052895;28;20223;-88
2023/08/01 02:49:38;;;;;;;3.17;2.00;;;;;;;;;;5052515;28;20270;-86
2023/08/01 02:52:06;;;;;;;8.40;2.60;;;;;;;;;;5052637;28;20253;-86
2023/08/01 02:54:33;;;;;;;7.07;2.50;;;;;;;;;;5053814;28;20702;-86
2023/08/01 02:57:00;;;;;;;5.28;2.78;;;;;;;;;;5052557;28;20250;-86
2023/08/01 02:59:27;;;;;;;6.22;2.42;;;;;;;;;;5054414;28;20286;-86
2023/08/01 03:01:55;;;;;;;6.68;3.05;;;;;;;;;;5056411;28;20243;-84
2023/08/01 03:04:24;;;;;;;7.47;3.28;;;;;;;;;;5056095;28;20223;-87
2023/08/01 03:06:51;;;;;;;7.70;3.50;;;;;;;;;;5056891;28;20206;-86
2023/08/01 03:09:18;;;;;;;7.70;3.30;;;;;;;;;;5056497;28;20219;-86
2023/08/01 03:11:46;;;;;;;7.88;3.42;;;;;;;;;;5056150;28;20274;-88
2023/08/01 03:14:13;;;;;;;6.32;3.20;;;;;;;;;;5057627;28;20639;-86
2023/08/01 03:16:40;;;;;;;6.45;2.90;;;;;;;;;;5055455;28;20222;-85
2023/08/01 03:19:08;;;;;;;7.10;3.13;;;;;;;;;;5056655;28;20206;-86
2023/08/01 03:21:37;;;;;;;8.48;3.67;;;;;;;;;;5056742;28;20226;-86
2023/08/01 03:24:08;;;;;;;6.20;3.55;;;;;;;;;;5055721;28;20282;-83
2023/08/01 03:26:35;;;;;;;5.70;3.10;;;;;;;;;;5056412;28;20255;-86
2023/08/01 03:29:03;;;;;;;6.60;3.20;;;;;;;;;;5056662;28;20257;-87
2023/08/01 03:31:30;;;;;;;5.75;2.95;;;;;;;;;;5056626;28;20630;-86
2023/08/01 03:33:58;;;;;;;7.00;3.40;;;;;;;;;;5056494;28;20211;-87
2023/08/01 03:36:26;;;;;;;8.38;3.53;;;;;;;;;;5057572;28;20259;-87
2023/08/01 03:38:54;;;;;;;7.22;3.58;;;;;;;;;;5056557;28;20298;-87
2023/08/01 03:41:22;;;;;;;11.80;3.72;;;;;;;;;;5056862;28;20238;-86
2023/08/01 03:43:49;;;;;;;8.80;3.83;;;;;;;;;;5056578;28;20254;-85
2023/08/01 03:46:16;;;;;;;8.85;3.88;;;;;;;;;;5056169;28;20219;-87
2023/08/01 03:48:44;;;;;;;10.48;3.92;;;;;;;;;;5055593;28;20202;-90
2023/08/01 03:51:11;;;;;;;9.75;3.90;;;;;;;;;;5056817;28;20224;-86
2023/08/01 03:53:39;;;;;;;7.18;3.30;;;;;;;;;;5056146;28;20212;-87
2023/08/01 03:56:07;;;;;;;8.80;3.85;;;;;;;;;;5053899;28;20223;-87
2023/08/01 03:58:34;;;;;;;9.05;4.07;;;;;;;;;;5054595;28;20674;-86
2023/08/01 04:01:02;;;;;;;7.97;3.60;;;;;;;;;;5055325;28;20726;-88
2023/08/01 04:03:29;;;;;;;8.35;4.05;;;;;;;;;;5055481;28;20258;-87
2023/08/01 04:05:56;;;;;;;8.90;4.15;;;;;;;;;;5056853;28;20279;-87
2023/08/01 04:08:24;;;;;;;9.32;3.90;;;;;;;;;;5055935;28;20242;-86
2023/08/01 04:10:51;;;;;;;9.68;3.75;;;;;;;;;;5056413;28;20607;-88
2023/08/01 04:13:20;;;;;;;11.07;4.28;;;;;;;;;;5057249;28;20291;-87
2023/08/01 04:15:47;;;;;;;12.13;3.78;;;;;;;;;;5057622;28;20650;-88
2023/08/01 04:18:15;;;;;;;8.00;3.80;;;;;;;;;;5057035;28;20220;-87
2023/08/01 04:20:42;;;;;;;10.35;4.20;;;;;;;;;;5056084;28;20282;-87
2023/08/01 04:23:09;;;;;;;9.90;4.00;;;;;;;;;;5055545;28;20251;-87
2023/08/01 04:25:36;;;;;;;10.68;4.15;;;;;;;;;;5056181;28;20283;-87
2023/08/01 04:28:03;;;;;;;12.13;4.30;;;;;;;;;;5055216;28;20231;-87
2023/08/01 04:30:33;;;;;;;9.68;4.00;;;;;;;;;;5055882;28;20287;-87
2023/08/01 04:33:01;;;;;;;7.85;4.10;;;;;;;;;;5055617;28;20290;-90
2023/08/01 04:35:28;;;;;;;11.75;4.43;;;;;;;;;;5055732;28;20207;-87
2023/08/01 04:37:56;;;;;;;9.93;4.35;;;;;;;;;;5055803;28;20203;-87
2023/08/01 04:40:23;;;;;;;9.18;4.40;;;;;;;;;;5054739;28;20219;-87
2023/08/01 04:42:50;;;;;;;8.35;4.40;;;;;;;;;;5055440;28;20738;-86
2023/08/01 04:45:17;;;;;;;9.70;4.50;;;;;;;;;;5055179;28;20283;-87
2023/08/01 04:47:46;;;;;;;12.32;4.15;;;;;;;;;;5055161;28;20273;-87
2023/08/01 04:50:13;;;;;;;13.82;4.70;;;;;;;;;;5054928;28;20200;-87
2023/08/01 04:52:41;;;;;;;10.68;4.72;;;;;;;;;;5054640;28;20200;-86
2023/08/01 04:55:08;;;;;;;8.43;4.18;;;;;;;;;;5054071;28;20234;-86
2023/08/01 04:57:36;;;;;;;13.15;5.22;;;;;;;;;;5054891;28;20249;-86
2023/08/01 05:00:03;;;;;;;6.82;4.45;;;;;;;;;;5054143;28;20206;-87
2023/08/01 05:02:30;;;;;;;8.20;4.05;;;;;;;;;;5054447;28;20297;-86
2023/08/01 05:04:59;;;;;;;10.85;4.80;;;;;;;;;;5054237;28;20227;-87
2023/08/01 05:07:26;;;;;;;9.13;4.40;;;;;;;;;;5054274;28;20283;-86
2023/08/01 05:09:53;;;;;;;11.30;4.78;;;;;;;;;;5054230;28;20234;-87
2023/08/01 05:12:20;;;;;;;13.13;4.75;;;;;;;;;;5054043;28;20286;-87
2023/08/01 05:14:48;;;;;;;12.85;4.80;;;;;;;;;;5054461;28;20259;-88
2023/08/01 05:17:15;;;;;;;12.23;4.95;;;;;;;;;;5054222;28;20239;-87
2023/08/01 05:19:42;;;;;;;12.50;4.85;;;;;;;;;;5054801;28;20184;-86
2023/08/01 05:22:11;;;;;;;9.55;4.68;;;;;;;;;;5053154;28;20247;-86
2023/08/01 05:24:38;;;;;;;11.15;4.95;;;;;;;;;;5054371;28;20274;-88
2023/08/01 05:27:06;;;;;;;12.20;4.55;;;;;;;;;;5054558;28;20235;-88
2023/08/01 05:29:33;;;;;;;8.82;4.43;;;;;;;;;;5055021;28;20283;-86
2023/08/01 05:32:00;;;;;;;11.70;4.75;;;;;;;;;;5054600;28;20196;-88
2023/08/01 05:34:28;;;;;;;11.38;4.63;;;;;;;;;;5054578;28;20282;-87
2023/08/01 05:36:55;;;;;;;11.30;4.25;;;;;;;;;;5053890;28;20624;-87
2023/08/01 05:39:24;;;;;;;13.13;4.60;;;;;;;;;;5054151;28;20284;-86
2023/08/01 05:41:51;;;;;;;10.80;4.53;;;;;;;;;;5054140;28;20230;-87
2023/08/01 05:44:19;;;;;;;7.30;4.28;;;;;;;;;;5054595;28;20227;-87
2023/08/01 05:46:46;;;;;;;8.98;4.35;;;;;;;;;;5054361;28;20203;-87
2023/08/01 05:49:13;;;;;;;10.90;4.45;;;;;;;;;;5054439;28;20223;-87
2023/08/01 05:51:40;;;;;;;11.15;5.28;;;;;;;;;;5053179;28;20223;-88
2023/08/01 05:54:07;;;;;;;11.90;4.45;;;;;;;;;;5053922;28;20659;-87
2023/08/01 05:56:36;;;;;;;8.88;4.50;;;;;;;;;;5053925;28;20237;-88
2023/08/01 05:59:03;;;;;;;6.72;3.90;;;;;;;;;;5053987;28;20692;-87
2023/08/01 06:01:31;;;;;;;8.00;4.32;;;;;;;;;;5054184;28;20245;-86
2023/08/01 06:03:58;;;;;;;8.73;4.30;;;;;;;;;;5053621;28;20699;-87
2023/08/01 06:06:27;;;;;;;13.27;4.57;;;;;;;;;;5053277;28;20615;-88
2023/08/01 06:08:54;;;;;;;12.23;4.45;;;;;;;;;;5054185;28;20968;-87
2023/08/01 06:11:21;;;;;;;7.97;4.10;;;;;;;;;;5053814;28;20203;-87
2023/08/01 06:13:50;;;;;;;8.98;4.20;;;;;;;;;;5054087;28;20192;-88
2023/08/01 06:16:17;;;;;;;10.38;4.68;;;;;;;;;;5053328;28;20261;-87
2023/08/01 06:18:45;;;;;;;8.45;4.82;;;;;;;;;;5053201;28;20238;-86
2023/08/01 06:21:12;;;;;;;9.52;4.25;;;;;;;;;;5052808;28;20683;-87
2023/08/01 06:23:39;;;;;;;9.25;4.40;;;;;;;;;;5052738;28;20585;-87
2023/08/01 06:26:06;;;;;;;9.40;4.75;;;;;;;;;;5052674;28;20242;-88
2023/08/01 06:28:33;;;;;;;11.55;4.53;;;;;;;;;;5051374;28;20349;-88
2023/08/01 06:31:02;;;;;;;10.05;5.72;;;;;;;;;;5052985;28;20279;-87
2023/08/01 06:33:30;;;;;;;7.78;4.40;;;;;;;;;;5053972;28;20218;-86
2023/08/01 06:35:57;;;;;;;10.57;4.55;;;;;;;;;;5056473;28;20200;-87
2023/08/01 06:38:24;;;;;;;9.40;4.60;;;;;;;;;;5056356;28;20640;-87
2023/08/01 06:40:51;;;;;;;8.15;4.57;;;;;;;;;;5056315;28;20288;-87
2023/08/01 06:43:19;;;;;;;15.60;4.88;;;;;;;;;;5056307;28;20334;-87
2023/08/01 06:45:46;;;;;;;8.85;4.75;;;;;;;;;;5056290;28;20224;-87
2023/08/01 06:48:14;;;;;;;8.82;4.93;;;;;;;;;;5056049;28;20223;-86
2023/08/01 06:50:42;;;;;;;10.48;4.53;;;;;;;;;;5056134;28;20283;-88
2023/08/01 06:53:09;;;;;;;13.63;4.75;;;;;;;;;;5056076;28;20295;-86
2023/08/01 06:55:36;;;;;;;9.75;4.43;;;;;;;;;;5055949;28;20278;-87
2023/08/01 06:58:03;;;;;;;10.80;4.60;;;;;;;;;;5056232;28;20287;-88
2023/08/01 07:00:31;;;;;;;7.93;4.38;;;;;;;;;;5056028;28;20778;-88
2023/08/01 07:02:59;;;;;;;12.55;4.88;;;;;;;;;;5055922;28;20622;-87
2023/08/01 07:05:27;;;;;;;11.82;5.38;;;;;;;;;;5055385;28;20219;-87
2023/08/01 07:07:54;;;;;;;14.35;5.47;;;;;;;;;;5055580;28;20294;-87
2023/08/01 07:10:21;;;;;;;10.23;5.35;;;;;;;;;;5055565;28;20680;-87
2023/08/01 07:12:49;;;;;;;8.65;4.80;;;;;;;;;;5055424;28;20231;-88
2023/08/01 07:15:16;;;;;;;11.77;5.05;;;;;;;;;;5055372;28;20690;-88
2023/08/01 07:17:43;;;;;;;10.65;5.22;;;;;;;;;;5055084;28;20700;-88
2023/08/01 07:20:11;;;;;;;12.60;4.75;;;;;;;;;;5055999;28;20282;-87
2023/08/01 07:22:39;;;;;;;11.40;4.57;;;;;;;;;;5055418;28;20223;-88
2023/08/01 07:25:07;;;;;;;9.25;4.85;;;;;;;;;;5056000;28;20231;-87
2023/08/01 07:27:37;;;;;;;8.70;4.70;;;;;;;;;;5055645;28;20266;-88
2023/08/01 07:30:05;;;;;;;9.45;4.50;;;;;;;;;;5055222;28;20192;-87
2023/08/01 07:32:32;;;;;;;9.80;4.45;;;;;;;;;;5054919;28;20234;-87
2023/08/01 07:34:59;;;;;;;8.15;3.65;;;;;;;;;;5055267;28;20227;-87
2023/08/01 07:37:28;;;;;;;10.50;4.18;;;;;;;;;;5055409;28;20242;-88
2023/08/01 07:39:57;;;;;;;5.05;3.10;;;;;;;;;;5054952;28;20663;-88
2023/08/01 07:42:24;;;;;;;8.75;4.95;;;;;;;;;;5055428;28;20192;-87
2023/08/01 07:44:51;;;;;;;9.57;5.68;;;;;;;;;;5054258;28;20322;-86
2023/08/01 07:47:18;;;;;;;12.32;8.25;;;;;;;;;;5054694;28;20270;-86
2023/08/01 07:49:45;;;;;;;9.52;5.63;;;;;;;;;;5055424;28;20295;-88
2023/08/01 07:52:13;;;;;;;10.30;6.00;;;;;;;;;;5055257;28;20287;-88
2023/08/01 07:54:40;;;;;;;10.85;5.85;;;;;;;;;;5055438;28;20203;-88
2023/08/01 07:57:09;;;;;;;11.13;5.78;;;;;;;;;;5054868;28;20731;-88
2023/08/01 07:59:36;;;;;;;7.68;4.70;;;;;;;;;;5055584;28;20247;-88
2023/08/01 08:02:03;;;;;;;6.00;3.67;;;;;;;;;;5054769;28;20199;-88
2023/08/01 08:04:30;;;;;;;6.88;4.38;;;;;;;;;;5055599;28;20211;-88
2023/08/01 08:06:59;;;;;;;6.63;4.07;;;;;;;;;;5055720;28;20257;-87
2023/08/01 08:09:27;;;;;;;7.53;4.40;;;;;;;;;;5055185;28;20218;-89
2023/08/01 08:11:57;;;;;;;8.32;4.32;;;;;;;;;;5055096;28;20279;-88
2023/08/01 08:14:25;;;;;;;7.28;4.18;;;;;;;;;;5054956;28;20239;-88
2023/08/01 08:16:53;;;;;;;8.63;4.32;;;;;;;;;;5055495;28;20803;-88
2023/08/01 08:19:20;;;;;;;8.23;4.80;;;;;;;;;;5055356;28;20282;-88
2023/08/01 08:21:47;;;;;;;9.80;4.30;;;;;;;;;;5054505;28;20727;-88
2023/08/01 08:24:14;;;;;;;9.20;5.03;;;;;;;;;;5054037;28;20310;-89
2023/08/01 08:26:41;;;;;;;7.65;4.68;;;;;;;;;;5054709;28;20227;-88
2023/08/01 08:29:09;;;;;;;8.48;4.72;;;;;;;;;;5055005;28;20267;-88
2023/08/01 08:31:37;;;;;;;7.82;3.85;;;;;;;;;;5054062;28;20202;-88
2023/08/01 08:34:04;;;;;;;6.53;3.75;;;;;;;;;;5054249;28;20848;-87
2023/08/01 08:36:31;;;;;;;10.80;3.90;;;;;;;;;;5054880;28;20192;-88
2023/08/01 08:39:00;;;;;;;8.57;4.10;;;;;;;;;;5055077;28;20699;-88
2023/08/01 08:41:29;;;;;;;7.45;3.30;;;;;;;;;;5055426;28;20203;-88
2023/08/01 08:43:57;;;;;;;7.40;3.83;;;;;;;;;;5055271;28;20322;-89
2023/08/01 08:46:28;;;;;;;6.57;3.33;;;;;;;;;;5054733;28;20290;-89
2023/08/01 08:48:58;;;;;;;5.68;3.40;;;;;;;;;;5055226;28;20568;-89
2023/08/01 08:51:25;;;;;;;7.20;3.20;;;;;;;;;;5055395;28;20223;-89
2023/08/01 08:53:54;;;;;;;8.05;3.92;;;;;;;;;;5055016;28;20226;-88
2023/08/01 08:56:22;;;;;;;5.70;3.70;;;;;;;;;;5055179;28;20226;-89
2023/08/01 08:58:49;;;;;;;5.35;3.17;;;;;;;;;;5054710;28;20203;-89
2023/08/01 09:01:17;;;;;;;7.18;3.22;;;;;;;;;;5054960;28;20286;-89
2023/08/01 09:03:45;;;;;;;5.68;3.45;;;;;;;;;;5054752;28;20269;-89
2023/08/01 09:06:15;;;;;;;7.90;3.45;;;;;;;;;;5054434;28;20210;-88
2023/08/01 09:08:43;;;;;;;6.45;3.47;;;;;;;;;;5054732;28;20283;-88
2023/08/01 09:11:10;;;;;;;10.05;3.63;;;;;;;;;;5054320;28;20188;-88
2023/08/01 09:13:38;;;;;;;9.75;3.88;;;;;;;;;;5054126;28;20279;-89
2023/08/01 09:16:07;;;;;;;9.27;4.28;;;;;;;;;;5054841;28;20227;-89
2023/08/01 09:18:34;;;;;;;8.60;4.53;;;;;;;;;;5054661;28;20227;-88
2023/08/01 09:21:02;;;;;;;8.13;4.80;;;;;;;;;;5054023;28;20222;-89
2023/08/01 09:23:31;;;;;;;11.00;4.82;;;;;;;;;;5054393;28;20219;-89
2023/08/01 09:25:59;;;;;;;6.95;4.35;;;;;;;;;;5054768;28;20550;-89
2023/08/01 09:28:27;;;;;;;8.02;3.97;;;;;;;;;;5052609;28;20266;-88
2023/08/01 09:30:56;;;;;;;8.88;3.75;;;;;;;;;;5053795;28;20252;-88
2023/08/01 09:33:24;;;;;;;8.45;4.05;;;;;;;;;;5054031;28;20214;-88
2023/08/01 09:35:52;;;;;;;9.60;3.90;;;;;;;;;;5054164;28;20257;-89
2023/08/01 09:38:20;;;;;;;8.15;3.70;;;;;;;;;;5054667;28;20242;-88
2023/08/01 09:40:49;;;;;;;8.32;3.28;;;;;;;;;;5054334;28;20204;-89
2023/08/01 09:43:17;;;;;;;7.82;3.40;;;;;;;;;;5053530;28;20210;-87
2023/08/01 09:45:54;;;;;;;7.63;3.60;;;;;;;;;;5054172;28;20253;-89
2023/08/01 09:48:25;;;;;;;6.38;3.22;;;;;;;;;;5052999;28;20202;-89
2023/08/01 09:50:53;;;;;;;5.35;3.20;;;;;;;;;;5054036;28;20191;-86
2023/08/01 09:53:20;;;;;;;7.55;3.60;;;;;;;;;;5053685;28;20622;-88
2023/08/01 09:55:50;;;;;;;6.78;4.00;;;;;;;;;;5053791;28;20302;-88
2023/08/01 09:58:19;;;;;;;8.55;4.70;;;;;;;;;;5053483;28;20286;-87
2023/08/01 10:00:46;;;;;;;7.97;4.03;;;;;;;;;;5053965;28;20234;-87
2023/08/01 10:03:13;;;;;;;8.95;4.28;;;;;;;;;;5053620;28;20235;-88
2023/08/01 10:05:42;;;;;;;9.93;5.28;;;;;;;;;;5053709;28;20259;-87
2023/08/01 10:08:10;;;;;;;10.98;5.47;;;;;;;;;;5054394;28;20202;-89
2023/08/01 10:10:37;;;;;;;10.25;4.38;;;;;;;;;;5057566;28;20230;-87
2023/08/01 10:13:06;;;;;;;5.57;4.00;;;;;;;;;;5057304;28;20270;-88
2023/08/01 10:15:34;;;;;;;12.98;4.50;;;;;;;;;;5057567;28;20262;-87
2023/08/01 10:18:01;;;;;;;8.65;3.78;;;;;;;;;;5057726;28;20227;-88
2023/08/01 10:20:28;;;;;;;5.45;3.30;;;;;;;;;;5057687;28;20279;-87
2023/08/01 10:22:56;;;;;;;8.02;3.45;;;;;;;;;;5057049;28;20219;-89
2023/08/01 10:25:23;;;;;;;6.60;3.35;;;;;;;;;;5057000;28;20273;-87
2023/08/01 10:27:59;;;;;;;5.35;3.50;;;;;;;;;;5056934;28;20258;-89
2023/08/01 10:30:29;;;;;;;6.93;3.35;;;;;;;;;;5057485;28;20231;-88
2023/08/01 10:32:57;;;;;;;8.63;4.10;;;;;;;;;;5056869;28;20295;-87
2023/08/01 10:35:33;;;;;;;8.98;3.97;;;;;;;;;;5057409;28;20290;-88
2023/08/01 10:38:05;;;;;;;7.18;4.07;;;;;;;;;;5057304;28;20853;-87
2023/08/01 10:40:39;;;;;;;6.93;4.53;;;;;;;;;;5056750;28;20220;-87
2023/08/01 10:43:06;;;;;;;6.78;3.85;;;;;;;;;;5056942;28;20227;-88
2023/08/01 10:45:34;;;;;;;6.88;4.00;;;;;;;;;;5057157;28;20318;-88
2023/08/01 10:48:08;;;;;;;9.18;4.40;;;;;;;;;;5057039;28;20231;-88
2023/08/01 10:50:35;;;;;;;8.25;3.83;;;;;;;;;;5056927;28;20203;-88
2023/08/01 10:53:06;;;;;;;8.20;3.72;;;;;;;;;;5057017;28;20216;-88
2023/08/01 10:55:40;;;;;;;5.40;3.97;;;;;;;;;;5056790;28;20309;-88
2023/08/01 10:58:07;;;;;;;6.43;3.47;;;;;;;;;;5057309;28;20621;-89
2023/08/01 11:00:36;;;;;;;6.90;3.42;;;;;;;;;;5056946;28;20643;-88
2023/08/01 11:03:03;;;;;;;4.80;3.55;;;;;;;;;;5056842;28;20220;-88
2023/08/01 11:05:30;;;;;;;4.35;3.25;;;;;;;;;;5056928;28;20310;-88
2023/08/01 11:07:58;;;;;;;8.30;3.90;;;;;;;;;;5056888;28;20249;-89
2023/08/01 11:10:27;;;;;;;6.35;3.35;;;;;;;;;;5056400;28;20230;-89
2023/08/01 11:12:54;;;;;;;6.70;3.58;;;;;;;;;;5057012;28;20275;-88
2023/08/01 11:15:22;;;;;;;5.65;3.30;;;;;;;;;;5056961;28;20291;-89
2023/08/01 11:17:51;;;;;;;8.07;3.55;;;;;;;;;;5056564;28;20231;-89
2023/08/01 11:20:19;;;;;;;5.05;3.17;;;;;;;;;;5055598;28;20202;-89
2023/08/01 11:22:53;;;;;;;8.48;3.70;;;;;;;;;;5056672;28;20199;-89
2023/08/01 11:25:21;;;;;;;8.60;4.07;;;;;;;;;;5056339;28;20255;-87
2023/08/01 11:27:48;;;;;;;9.10;3.75;;;;;;;;;;5056115;28;20270;-89
2023/08/01 11:30:15;;;;;;;7.13;3.65;;;;;;;;;;5056284;28;20682;-89
2023/08/01 11:32:42;;;;;;;7.50;3.30;;;;;;;;;;5056111;28;20684;-89
2023/08/01 11:35:18;;;;;;;6.70;3.63;;;;;;;;;;5056445;28;20763;-88
2023/08/01 11:37:46;;;;;;;9.68;3.60;;;;;;;;;;5056199;28;20196;-89
2023/08/01 11:40:13;;;;;;;7.78;3.50;;;;;;;;;;5055720;28;20249;-88
2023/08/01 11:42:41;;;;;;;6.35;2.90;;;;;;;;;;5055877;28;20228;-88
2023/08/01 11:45:11;;;;;;;4.97;3.08;;;;;;;;;;5055811;28;20577;-88
2023/08/01 11:47:39;;;;;;;6.45;2.78;;;;;;;;;;5056194;28;20219;-87
2023/08/01 11:50:07;;;;;;;4.32;2.70;;;;;;;;;;5056073;28;20275;-87
2023/08/01 11:52:36;;;;;;;7.88;3.05;;;;;;;;;;5055682;28;20200;-88
2023/08/01 11:55:03;;;;;;;4.38;2.88;;;;;;;;;;5055728;28;20570;-87
2023/08/01 11:57:30;;;;;;;4.57;2.80;;;;;;;;;;5055414;28;20231;-88
2023/08/01 11:59:58;;;;;;;4.93;2.92;;;;;;;;;;5055630;28;20287;-88
2023/08/01 12:02:25;;;;;;;4.30;2.75;;;;;;;;;;5055626;28;20295;-88
2023/08/01 12:04:53;;;;;;;4.57;2.50;;;;;;;;;;5055639;28;20711;-88
2023/08/01 12:07:21;;;;;;;4.25;2.78;;;;;;;;;;5055424;28;20291;-87
2023/08/01 12:09:58;;;;;;;4.88;2.85;;;;;;;;;;5055421;28;20230;-87
2023/08/01 12:12:25;;;;;;;5.85;2.97;;;;;;;;;;5055520;28;20183;-89
2023/08/01 12:14:53;;;;;;;6.82;3.50;;;;;;;;;;5054833;28;20279;-88
2023/08/01 12:17:20;;;;;;;5.93;3.08;;;;;;;;;;5054384;28;20207;-89
2023/08/01 12:19:48;;;;;;;5.43;2.80;;;;;;;;;;5054857;28;20204;-87
2023/08/01 12:22:15;;;;;;;5.82;3.40;;;;;;;;;;5054582;28;20231;-87
2023/08/01 12:24:42;;;;;;;5.90;2.95;;;;;;;;;;5055556;28;20227;-86
2023/08/01 12:27:11;;;;;;;5.78;3.35;;;;;;;;;;5055291;28;20315;-89
2023/08/01 12:29:38;;;;;;;6.35;3.20;;;;;;;;;;5054866;28;20231;-88
2023/08/01 12:32:07;;;;;;;4.78;3.00;;;;;;;;;;5054481;28;20223;-88
2023/08/01 12:34:35;;;;;;;5.88;2.78;;;;;;;;;;5055341;28;20214;-89
2023/08/01 12:37:03;;;;;;;8.10;3.60;;;;;;;;;;5055012;28;20223;-88
2023/08/01 12:39:30;;;;;;;6.43;3.33;;;;;;;;;;5054380;28;20203;-87
2023/08/01 12:41:57;;;;;;;5.22;3.00;;;;;;;;;;5054379;28;20207;-88
2023/08/01 12:44:26;;;;;;;4.20;2.85;;;;;;;;;;5054420;28;20227;-88
2023/08/01 12:46:53;;;;;;;5.72;2.90;;;;;;;;;;5054792;28;20272;-88
2023/08/01 12:49:21;;;;;;;3.42;2.60;;;;;;;;;;5054693;28;20211;-88
2023/08/01 12:51:48;;;;;;;5.45;2.63;;;;;;;;;;5054307;28;20234;-88
2023/08/01 12:54:15;;;;;;;5.90;2.90;;;;;;;;;;5054827;28;20286;-88
2023/08/01 12:56:42;;;;;;;5.97;2.80;;;;;;;;;;5054576;28;20287;-88
2023/08/01 12:59:09;;;;;;;5.18;2.97;;;;;;;;;;5054745;28;20282;-88
2023/08/01 13:01:38;;;;;;;4.13;2.60;;;;;;;;;;5054490;28;20711;-87
2023/08/01 13:04:06;;;;;;;8.20;2.88;;;;;;;;;;5054104;28;20234;-88
2023/08/01 13:06:33;;;;;;;4.53;2.60;;;;;;;;;;5053924;28;20226;-88
2023/08/01 13:09:00;;;;;;;4.50;2.50;;;;;;;;;;5053918;28;20246;-87
2023/08/01 13:11:27;;;;;;;5.57;2.70;;;;;;;;;;5054100;28;20621;-87
2023/08/01 13:13:54;;;;;;;4.10;2.63;;;;;;;;;;5054314;28;20192;-87
2023/08/01 13:16:21;;;;;;;3.22;2.20;;;;;;;;;;5054081;28;20301;-87
2023/08/01 13:18:50;;;;;;;4.60;2.40;;;;;;;;;;5054018;28;20194;-87
2023/08/01 13:21:17;;;;;;;3.58;2.33;;;;;;;;;;5053426;28;20238;-88
2023/08/01 13:23:44;;;;;;;4.35;2.33;;;;;;;;;;5054275;28;20223;-87
2023/08/01 13:26:11;;;;;;;3.45;2.40;;;;;;;;;;5053522;28;20664;-85
2023/08/01 13:28:39;;;;;;;5.25;2.50;;;;;;;;;;5053397;28;20255;-87
2023/08/01 13:31:06;;;;;;;3.63;2.72;;;;;;;;;;5053745;28;20257;-87
2023/08/01 13:33:33;;;;;;;4.35;2.50;;;;;;;;;;5053718;28;20215;-87
2023/08/01 13:36:02;;;;;;;5.38;3.05;;;;;;;;;;5053542;28;20295;-87
2023/08/01 13:38:29;;;;;;;4.85;3.00;;;;;;;;;;5053497;28;20255;-87
2023/08/01 13:40:56;;;;;;;7.50;2.92;;;;;;;;;;5053280;28;20192;-87
2023/08/01 13:43:23;;;;;;;4.18;2.53;;;;;;;;;;5052567;28;20198;-87
2023/08/01 13:45:50;;;;;;;5.70;2.70;;;;;;;;;;5053595;28;20652;-87
2023/08/01 13:48:17;;;;;;;4.50;3.00;;;;;;;;;;5053425;28;20200;-87
2023/08/01 13:50:45;;;;;;;5.75;2.72;;;;;;;;;;5052829;28;20248;-87
2023/08/01 13:53:14;;;;;;;3.45;2.63;;;;;;;;;;5053716;28;20270;-87
2023/08/01 13:55:41;;;;;;;4.63;2.80;;;;;;;;;;5053486;28;20199;-88
2023/08/01 13:58:08;;;;;;;3.50;2.65;;;;;;;;;;5053384;28;20213;-87
2023/08/01 14:00:35;;;;;;;5.05;2.60;;;;;;;;;;5052893;28;20385;-88
2023/08/01 14:03:03;;;;;;;5.60;3.03;;;;;;;;;;5053208;28;20245;-87
2023/08/01 14:05:30;;;;;;;5.15;2.83;;;;;;;;;;5052551;28;20699;-86
2023/08/01 14:07:59;;;;;;;6.20;3.40;;;;;;;;;;5053228;28;20224;-87
2023/08/01 14:10:28;;;;;;;4.53;2.88;;;;;;;;;;5052679;28;20206;-87
2023/08/01 14:12:55;;;;;;;6.97;3.20;;;;;;;;;;5052431;28;20687;-87
2023/08/01 14:15:22;;;;;;;5.65;3.22;;;;;;;;;;5052529;28;20228;-88
2023/08/01 14:17:50;;;;;;;5.25;3.20;;;;;;;;;;5052257;28;20286;-87
2023/08/01 14:20:17;;;;;;;8.35;3.25;;;;;;;;;;5052432;28;20283;-86
2023/08/01 14:22:44;;;;;;;5.18;3.10;;;;;;;;;;5052661;28;20215;-87
2023/08/01 14:25:12;;;;;;;5.70;3.20;;;;;;;;;;5052440;28;20222;-88
2023/08/01 14:27:40;;;;;;;7.20;3.38;;;;;;;;;;5052405;28;20263;-88
2023/08/01 14:30:08;;;;;;;7.15;3.58;;;;;;;;;;5052268;28;20196;-87
2023/08/01 14:32:38;;;;;;;6.90;3.53;;;;;;;;;;5052008;28;20223;-87
2023/08/01 14:35:06;;;;;;;7.68;3.78;;;;;;;;;;5052154;28;20200;-87
2023/08/01 14:37:34;;;;;;;6.55;3.70;;;;;;;;;;5052539;28;20203;-86
2023/08/01 14:40:01;;;;;;;9.02;3.63;;;;;;;;;;5052198;28;20203;-87
2023/08/01 14:42:28;;;;;;;6.32;3.72;;;;;;;;;;5052299;28;20562;-87
2023/08/01 14:44:57;;;;;;;7.45;4.00;;;;;;;;;;5052046;28;20606;-86